Jarrettsville, MD (21084)

8:10 PM EDT on May 28, 2015 (GMT -0400)
Jarrettsville | | Change Station
CLOSE
Current Station
Personal Weather Station
Location: Jarrettsville, MD
Elevation: 627 ft
Nearby Weather Stations

Elev 627 ft 39.60 °N, 76.47 °W | Updated 0 second ago

Overcast
Overcast
73.0 °F
Feels Like 72 °F
N
0.0
Wind Variable Wind from East
Gusts 0.0 mph

Today
High -- | Low -- °F
--% Chance of Precip.
Yesterday
High -- | Low -- °F
Precip. -- in
5:42 AM 8:24 PM
Waxing Gibbous, 79% visible
Pressure 30.15 in
Visibility 7.0 miles
Clouds Mostly Cloudy 4000 ft
Mostly Cloudy 15000 ft
Heat Index 72 °F
Dew Point 69 °F
Humidity 86%
Rainfall 0.00 in
Snow Depth Not available.
UV 0 out of 12
Pollen 7.00 out of 12
Air Quality Not available.
Flu Activity Sporadic
METAR KAPG 282353Z 00000KT 7SM BKN040 BKN150 26/20 A3015 RMK LAST

More Conditions Fewer Conditions

Pressure 30.15 in
Visibility 7.0 miles
Clouds Mostly Cloudy 4000 ft
Mostly Cloudy 15000 ft
Heat Index 72 °F
Dew Point 69 °F
Humidity 86%
Rainfall 0.00 in
Snow Depth Not available.
UV 0 out of 12
Pollen 7.00 out of 12
Air Quality Not available.
Flu Activity Sporadic
METAR KAPG 282353Z 00000KT 7SM BKN040 BKN150 26/20 A3015 RMK LAST

More Conditions Fewer Conditions

10-Day Weather Forecast

Almanac

Astronomy

May. 28, 2015 Rise Set
Actual Time
Civil Twilight
Nautical Twilight
Astronomical Twilight
Moon
Length of Visible Light
Length of Day
Tomorrow will be .
, % of the Moon is Illuminated

Today's Extremes

State Highs State Lows

Community

WunderPhotos

Upload Photos

1,825,096 photos uploaded!

WunderBlogs® & News

Nearby

Air Quality

  Air Quality AQ Index Pollutant
Not available.

Snow Depth

Station Depth Elevation

Earthquake Activity

City Distance Mag. Time & Date
Minimum magnitude displayed is 2.5.

Coastal Water Temperatures

Place Temperature

Stations

Nearby Weather Stations

Station Location Temp. Windchill Dew Point Humidity Wind Precip. Elev Updated Type